Aérodrome :
LOGIN :

S'inscrire | Disclaimer

   EN    FR    IT 

 










Légende :    VFR   VFR Marginal   IFR   IFR Intensif   IFR Très Intensif
Visi : 
Plafond : 
>= 8 km
>= 3000ft
5 à 8 km
1000 à 3000 ft
1500m à 5 km
500 à 1000 ft
800 à 1500m
200 à 500 ft
< 800m
< 200 ft
Symboles :   Orages  Brouillard  Fortes neiges  Fortes précipitations  Vent > 20 kt
SIGMETs :   Divers  Orages  Givrage  Turbulence  Onde Orograph.  Cendres Volcan.







- Altitude de l'aérodrome : 47 ft
- Code IATA : CBG
- Voir les cartes d'approche


EGSC - Cambridge

DERNIER METAR :
  • 231420Z 33013KT 9999 FEW035 13/03 Q1020

METARs EXPIRÉS :
  • 231350Z 33014KT 9999 SCT033 13/04 Q1019
  • 231320Z 33013KT 9999 SCT030 12/05 Q1019
  • 231250Z 32013KT 9999 FEW025 11/06 Q1018
  • 231220Z 32011KT 9999 FEW025 11/05 Q1018
  • 231150Z 32008KT 9999 FEW018 10/07 Q1017

TAF TAF EGSC
Valide du 23 à 15h jusqu'au 23 à 19h UTC


231406Z 2315/2319 32012KT 9999 SCT035
PROB30
TEMPO 2315/2319 33015G25KT 9000 SHRA
Pas de NOTAMs connus pour ce terrain.
1 SIGMET publié pour la FIR London (EGTT) :
 
Turbulence forte
EGTT SIGMET 03 VALID 231330/231630 EGRR
EGTT LONDON FIR SEV TURB FCST WI N5100 E00128 - N5040 E00128 - N5000 W00014 - N5031 W00005 - N5102 E00122 - N5130 E00200 - N5107 E00201 - N5100 E00128 SFC/FL060 MOV E 30KT WKN=



MET'MAP, la Météo Aéronautique d'un coup d'oeil ! - Copyright ORBIFLY Décembre 2007 - Disclaimer

ORBIFLY MET'MAP TEAM :

Programmation & Développement : Alexandra Zaïnal
Conception & Développement : Baudouin d'Aumeries
Co-Programmation & Développement : Marc-Olivier Méhu
Soutien technique & logistique : Manuel Goepfert

Contact : metmap@orbifly.com




SOURCES & CREDITS :

   NOAA